createdAt,value
2018-09-25T00:02:48.178Z,99.90
2018-09-25T00:08:57.919Z,99.90
2018-09-25T00:15:08.219Z,99.90
2018-09-25T00:21:18.034Z,99.90
2018-09-25T00:27:27.992Z,99.90
2018-09-25T00:33:37.636Z,99.90
2018-09-25T00:39:47.270Z,99.90
2018-09-25T00:45:56.989Z,99.90
2018-09-25T00:52:06.702Z,99.90
2018-09-25T00:58:16.881Z,99.90
2018-09-25T01:04:26.557Z,99.90
2018-09-25T01:10:36.751Z,99.90
2018-09-25T01:16:46.330Z,99.90
2018-09-25T01:22:56.232Z,99.90
2018-09-25T01:29:06.137Z,99.90
2018-09-25T01:35:15.943Z,99.90
2018-09-25T01:41:26.176Z,99.90
2018-09-25T01:47:43.015Z,99.90
2018-09-25T01:53:52.870Z,99.90
2018-09-25T02:00:02.582Z,99.90
2018-09-25T02:06:12.545Z,99.90
2018-09-25T02:12:22.542Z,99.90
2018-09-25T02:18:32.444Z,99.90
2018-09-25T02:24:42.207Z,99.90
2018-09-25T02:30:52.115Z,99.90
2018-09-25T02:37:01.992Z,99.90
2018-09-25T02:43:12.359Z,99.90
2018-09-25T02:49:22.142Z,99.90
2018-09-25T02:55:32.321Z,99.90
2018-09-25T03:01:42.080Z,99.90
2018-09-25T03:07:52.110Z,99.90
2018-09-25T03:14:01.962Z,99.90
2018-09-25T03:20:11.717Z,99.90
2018-09-25T03:26:21.558Z,99.90
2018-09-25T03:32:31.350Z,99.90
2018-09-25T03:38:41.329Z,99.90
2018-09-25T03:44:51.718Z,99.90
2018-09-25T03:51:01.498Z,99.90
2018-09-25T03:57:18.148Z,99.90
2018-09-25T04:03:27.816Z,99.90
2018-09-25T04:09:37.654Z,99.90
2018-09-25T04:15:47.479Z,99.90
2018-09-25T04:21:57.277Z,99.90
2018-09-25T04:28:07.014Z,99.90
2018-09-25T04:34:16.902Z,99.90
2018-09-25T04:40:26.986Z,99.90
2018-09-25T04:46:36.828Z,99.90
2018-09-25T04:52:46.557Z,99.90
2018-09-25T04:58:56.669Z,99.90
2018-09-25T05:05:06.477Z,99.90
2018-09-25T05:11:16.317Z,99.90
2018-09-25T05:17:26.046Z,99.90
2018-09-25T05:23:35.909Z,99.90
2018-09-25T05:29:45.707Z,99.90
2018-09-25T05:35:55.596Z,99.90
2018-09-25T05:42:05.135Z,99.90
2018-09-25T05:48:14.918Z,99.90
2018-09-25T05:54:25.115Z,99.90
2018-09-25T06:00:34.961Z,99.90
2018-09-25T06:06:45.016Z,99.90
2018-09-25T06:12:54.801Z,99.90
2018-09-25T06:19:04.684Z,99.90
2018-09-25T06:25:14.604Z,99.90
2018-09-25T06:31:24.258Z,99.90
2018-09-25T06:37:34.001Z,99.90
2018-09-25T06:43:44.134Z,99.90
2018-09-25T06:49:54.040Z,99.90
2018-09-25T06:56:03.890Z,99.90
2018-09-25T07:02:13.611Z,99.90
2018-09-25T07:08:23.772Z,99.90
2018-09-25T07:14:33.532Z,99.90
2018-09-25T07:20:43.834Z,99.90
2018-09-25T07:26:53.818Z,99.90
2018-09-25T07:33:03.689Z,99.90
2018-09-25T07:39:15.237Z,99.90
2018-09-25T07:45:24.990Z,99.90
2018-09-25T07:51:34.570Z,99.90
2018-09-25T07:57:44.478Z,99.90
2018-09-25T08:03:54.600Z,99.90
2018-09-25T08:10:04.294Z,99.90
2018-09-25T08:16:14.285Z,99.90
2018-09-25T08:22:24.034Z,99.90
2018-09-25T08:28:33.849Z,99.90
2018-09-25T08:34:43.674Z,99.90
2018-09-25T08:40:53.514Z,99.90
2018-09-25T08:47:03.440Z,99.90
2018-09-25T08:53:13.159Z,99.90
2018-09-25T08:59:23.359Z,99.90
2018-09-25T09:05:33.076Z,99.90
2018-09-25T09:11:42.823Z,96.40
2018-09-25T09:17:52.572Z,94.70
2018-09-25T09:24:02.537Z,93.60
2018-09-25T09:30:12.363Z,92.50
2018-09-25T09:36:22.274Z,95.20
2018-09-25T09:42:38.860Z,98.70
2018-09-25T09:48:48.643Z,97.90
2018-09-25T09:54:58.558Z,96.00
2018-09-25T10:01:08.333Z,96.60
2018-09-25T10:07:18.340Z,97.20
2018-09-25T10:13:27.831Z,93.60
2018-09-25T10:19:37.610Z,94.00
2018-09-25T10:25:47.384Z,97.10
2018-09-25T10:31:57.514Z,99.90
2018-09-25T10:38:07.391Z,99.90
2018-09-25T10:44:17.781Z,99.90
2018-09-25T10:50:27.571Z,99.90
2018-09-25T10:56:37.342Z,99.00
2018-09-25T11:02:47.227Z,90.80
2018-09-25T11:08:57.324Z,82.00
2018-09-25T11:15:06.997Z,72.30
2018-09-25T11:21:16.810Z,63.00
2018-09-25T11:27:26.594Z,76.90
2018-09-25T11:33:36.290Z,81.40
2018-09-25T11:39:45.995Z,90.00
2018-09-25T11:45:55.883Z,83.60
2018-09-25T11:52:05.532Z,75.40
2018-09-25T11:58:15.242Z,77.80
2018-09-25T12:04:25.466Z,76.00
2018-09-25T12:10:35.102Z,71.50
2018-09-25T12:16:44.945Z,66.90
2018-09-25T12:22:54.976Z,64.20
2018-09-25T12:29:04.829Z,60.50
2018-09-25T12:35:14.760Z,56.20
2018-09-25T12:41:24.270Z,53.50
2018-09-25T12:47:34.298Z,56.60
2018-09-25T12:53:44.176Z,61.20
2018-09-25T12:59:53.914Z,65.60
2018-09-25T13:06:03.803Z,70.60
2018-09-25T13:12:14.044Z,72.70
2018-09-25T13:18:24.481Z,69.20
2018-09-25T13:24:34.120Z,70.60
2018-09-25T13:30:44.217Z,74.40
2018-09-25T13:36:54.210Z,74.70
2018-09-25T13:43:04.102Z,75.80
2018-09-25T13:49:14.124Z,71.30
2018-09-25T13:55:23.987Z,73.50
2018-09-25T14:01:33.865Z,75.60
2018-09-25T14:07:43.568Z,76.50
2018-09-25T14:13:53.316Z,79.70
2018-09-25T14:20:03.136Z,80.70
2018-09-25T14:26:12.930Z,79.70
2018-09-25T14:32:22.703Z,73.70
2018-09-25T14:38:32.794Z,62.10
2018-09-25T14:44:42.638Z,57.00
2018-09-25T14:50:52.160Z,57.10
2018-09-25T14:57:02.255Z,56.10
2018-09-25T15:03:12.063Z,52.10
2018-09-25T15:09:22.187Z,50.10
2018-09-25T15:15:31.958Z,49.00
2018-09-25T15:21:42.231Z,47.80
2018-09-25T15:27:52.211Z,50.70
2018-09-25T15:34:01.817Z,51.90
2018-09-25T15:40:12.024Z,53.90
2018-09-25T15:46:21.830Z,53.50
2018-09-25T15:52:31.547Z,55.80
2018-09-25T15:58:41.688Z,54.60
2018-09-25T16:04:51.247Z,54.30
2018-09-25T16:11:00.876Z,54.80
2018-09-25T16:17:10.805Z,57.00
2018-09-25T16:23:20.365Z,58.70
2018-09-25T16:29:30.058Z,63.10
2018-09-25T16:35:40.335Z,65.30
2018-09-25T16:41:50.180Z,65.80
2018-09-25T16:47:59.872Z,69.90
2018-09-25T16:54:09.510Z,75.00
2018-09-25T17:00:19.283Z,83.50
2018-09-25T17:06:29.015Z,90.90
2018-09-25T17:12:38.790Z,94.30
2018-09-25T17:18:49.215Z,99.20
2018-09-25T17:24:59.101Z,99.90
2018-09-25T17:31:08.932Z,99.90
2018-09-25T17:37:18.789Z,99.90
2018-09-25T17:43:28.851Z,99.90
2018-09-25T17:49:38.651Z,99.90
2018-09-25T17:55:48.548Z,99.90
2018-09-25T18:01:58.266Z,99.90
2018-09-25T18:08:08.096Z,99.90
2018-09-25T18:14:18.212Z,99.90
2018-09-25T18:20:28.116Z,99.90
2018-09-25T18:26:38.317Z,99.90
2018-09-25T18:32:48.794Z,99.90
2018-09-25T18:38:58.666Z,99.90
2018-09-25T18:45:08.694Z,99.90
2018-09-25T18:51:18.310Z,99.90
2018-09-25T18:57:28.073Z,99.90
2018-09-25T19:03:37.934Z,99.90
2018-09-25T19:09:47.671Z,99.90
2018-09-25T19:15:57.367Z,99.90
2018-09-25T19:22:07.146Z,99.90
2018-09-25T19:28:16.981Z,99.90
2018-09-25T19:34:26.638Z,99.90
2018-09-25T19:40:36.752Z,99.90
2018-09-25T19:46:46.906Z,99.90
2018-09-25T19:52:57.406Z,99.90
2018-09-25T19:59:07.315Z,99.90
2018-09-25T20:05:17.859Z,99.90
2018-09-25T20:11:27.444Z,99.90
2018-09-25T20:17:37.208Z,99.90
2018-09-25T20:23:47.139Z,99.90
2018-09-25T20:29:56.851Z,99.90
2018-09-25T20:36:06.719Z,99.90
2018-09-25T20:42:16.810Z,99.90
2018-09-25T20:48:26.651Z,99.90
2018-09-25T20:54:37.015Z,99.90
2018-09-25T21:00:46.779Z,99.90
2018-09-25T21:06:56.950Z,99.90
2018-09-25T21:13:06.710Z,99.90
2018-09-25T21:19:16.588Z,99.90
2018-09-25T21:25:26.352Z,99.90
2018-09-25T21:31:36.458Z,99.90
2018-09-25T21:37:46.336Z,99.90
2018-09-25T21:43:56.195Z,99.90
2018-09-25T21:50:05.946Z,99.90
2018-09-25T21:56:15.538Z,99.90
2018-09-25T22:02:25.301Z,99.90
2018-09-25T22:08:35.576Z,99.90
2018-09-25T22:14:45.299Z,99.90
2018-09-25T22:20:55.196Z,99.90
2018-09-25T22:27:04.941Z,99.90
2018-09-25T22:33:14.528Z,99.90
2018-09-25T22:39:24.188Z,99.90
2018-09-25T22:45:33.867Z,99.90
2018-09-25T22:51:43.584Z,99.90
2018-09-25T22:57:53.814Z,99.90
2018-09-25T23:04:03.957Z,99.90
2018-09-25T23:10:13.815Z,99.90
2018-09-25T23:16:24.315Z,99.90
2018-09-25T23:22:34.074Z,99.90
2018-09-25T23:28:43.825Z,99.90
2018-09-25T23:34:53.628Z,99.90
2018-09-25T23:41:11.691Z,99.90
2018-09-25T23:47:21.453Z,99.90
2018-09-25T23:53:29.268Z,99.90
2018-09-25T23:59:47.875Z,99.90
